Pompano Beach, Florida
Current Conditions -  °F | °C
As of 2:53 PM on Wednesday 26 Nov 2014 (Local Time) from KFXE Reporting Station
Overcast Overcast  
Wind Chill: 63°   Ceiling: 1300
Heat Index: 63°   Visibility: 10mi
Dew Point: 57°   Wind: 15mph
Humidity: 81%   Direction: 310°NW
Pressure: 30.1"   Gusts: 24mph
Location:  26.23°N, 80.16°W
Report Text: KFXE 261953Z 31013G21KT 10SM OVC013 17/14 A3010 RMK AO2 SLP193 T01720139
Loading
Personal Weather Stations






























Interactive Weather Map New forecast layout! Learn more

10-Day Weather Forecast

Advertisements
Track Severe Weather on mobile